sensor_id;sensor_type;location;lat;lon;timestamp;pressure;altitude;pressure_sealevel;temperature;humidity
42003;BME280;27693;50.506;30.832;2023-09-19T00:00:18;100213.78;;;16.27;67.18
42003;BME280;27693;50.506;30.832;2023-09-19T00:01:27;100207.60;;;16.28;66.93
42003;BME280;27693;50.506;30.832;2023-09-19T00:02:30;100215.69;;;16.25;67.12
42003;BME280;27693;50.506;30.832;2023-09-19T00:03:33;100209.67;;;16.23;67.33
42003;BME280;27693;50.506;30.832;2023-09-19T00:04:35;100210.05;;;16.17;68.34
42003;BME280;27693;50.506;30.832;2023-09-19T00:05:40;100213.61;;;16.16;70.41
42003;BME280;27693;50.506;30.832;2023-09-19T00:06:44;100207.33;;;16.18;68.70
42003;BME280;27693;50.506;30.832;2023-09-19T00:07:47;100208.75;;;16.09;68.85
42003;BME280;27693;50.506;30.832;2023-09-19T00:08:49;100204.42;;;16.08;68.57
42003;BME280;27693;50.506;30.832;2023-09-19T00:09:52;100214.16;;;16.06;68.72
42003;BME280;27693;50.506;30.832;2023-09-19T00:10:54;100207.05;;;16.08;68.09
42003;BME280;27693;50.506;30.832;2023-09-19T00:11:57;100203.50;;;16.09;68.07
42003;BME280;27693;50.506;30.832;2023-09-19T00:13:02;100205.19;;;16.10;68.30
42003;BME280;27693;50.506;30.832;2023-09-19T00:14:08;100207.05;;;16.08;67.81
42003;BME280;27693;50.506;30.832;2023-09-19T00:15:12;100208.84;;;16.08;67.69
42003;BME280;27693;50.506;30.832;2023-09-19T00:16:15;100212.30;;;16.08;67.77
42003;BME280;27693;50.506;30.832;2023-09-19T00:17:17;100209.02;;;16.05;69.98
42003;BME280;27693;50.506;30.832;2023-09-19T00:18:21;100207.26;;;16.05;68.28
42003;BME280;27693;50.506;30.832;2023-09-19T00:19:25;100215.03;;;16.07;67.65
42003;BME280;27693;50.506;30.832;2023-09-19T00:20:28;100207.43;;;16.02;68.24
42003;BME280;27693;50.506;30.832;2023-09-19T00:21:32;100207.53;;;16.01;67.77
42003;BME280;27693;50.506;30.832;2023-09-19T00:22:34;100209.30;;;16.00;68.68
42003;BME280;27693;50.506;30.832;2023-09-19T00:23:37;100209.50;;;15.97;68.30
42003;BME280;27693;50.506;30.832;2023-09-19T00:24:40;100210.33;;;15.97;67.85
42003;BME280;27693;50.506;30.832;2023-09-19T00:25:42;100202.73;;;15.93;68.25
42003;BME280;27693;50.506;30.832;2023-09-19T00:26:45;100211.36;;;15.95;68.19
42003;BME280;27693;50.506;30.832;2023-09-19T00:27:48;100204.42;;;15.94;68.39
42003;BME280;27693;50.506;30.832;2023-09-19T00:28:53;100202.93;;;15.90;68.68
42003;BME280;27693;50.506;30.832;2023-09-19T00:29:55;100201.07;;;15.92;68.25
42003;BME280;27693;50.506;30.832;2023-09-19T00:30:58;100202.07;;;15.89;68.08
42003;BME280;27693;50.506;30.832;2023-09-19T00:32:03;100201.07;;;15.92;68.09
42003;BME280;27693;50.506;30.832;2023-09-19T00:33:06;100207.14;;;15.92;67.78
42003;BME280;27693;50.506;30.832;2023-09-19T00:34:10;100201.23;;;15.89;67.98
42003;BME280;27693;50.506;30.832;2023-09-19T00:35:16;100205.66;;;15.88;67.88
42003;BME280;27693;50.506;30.832;2023-09-19T00:36:18;100205.92;;;15.84;68.29
42003;BME280;27693;50.506;30.832;2023-09-19T00:37:21;100211.94;;;15.86;68.49
42003;BME280;27693;50.506;30.832;2023-09-19T00:38:24;100210.25;;;15.85;68.30
42003;BME280;27693;50.506;30.832;2023-09-19T00:39:29;100211.08;;;15.85;68.31
42003;BME280;27693;50.506;30.832;2023-09-19T00:40:33;100207.63;;;15.85;69.31
42003;BME280;27693;50.506;30.832;2023-09-19T00:41:37;100211.94;;;15.86;68.59
42003;BME280;27693;50.506;30.832;2023-09-19T00:42:44;100203.10;;;15.87;68.32
42003;BME280;27693;50.506;30.832;2023-09-19T00:43:46;100203.44;;;15.80;68.87
42003;BME280;27693;50.506;30.832;2023-09-19T00:44:50;100203.44;;;15.80;68.52
42003;BME280;27693;50.506;30.832;2023-09-19T00:45:55;100212.24;;;15.79;68.73
42003;BME280;27693;50.506;30.832;2023-09-19T00:46:58;100205.34;;;15.78;70.28
42003;BME280;27693;50.506;30.832;2023-09-19T00:48:01;100201.95;;;15.76;69.53
42003;BME280;27693;50.506;30.832;2023-09-19T00:49:07;100206.27;;;15.77;68.79
42003;BME280;27693;50.506;30.832;2023-09-19T00:50:13;100208.23;;;15.74;69.49
42003;BME280;27693;50.506;30.832;2023-09-19T00:51:16;100205.67;;;15.72;69.34
42003;BME280;27693;50.506;30.832;2023-09-19T00:52:24;100201.45;;;15.70;69.35
42003;BME280;27693;50.506;30.832;2023-09-19T00:53:29;100204.94;;;15.70;68.75
42003;BME280;27693;50.506;30.832;2023-09-19T00:54:33;100204.18;;;15.68;69.23
42003;BME280;27693;50.506;30.832;2023-09-19T00:55:38;100202.32;;;15.70;68.75
42003;BME280;27693;50.506;30.832;2023-09-19T00:56:42;100202.22;;;15.72;68.75
42003;BME280;27693;50.506;30.832;2023-09-19T00:57:46;100200.63;;;15.69;69.24
42003;BME280;27693;50.506;30.832;2023-09-19T00:58:49;100197.91;;;15.71;69.02
42003;BME280;27693;50.506;30.832;2023-09-19T00:59:53;100197.73;;;15.74;68.90
42003;BME280;27693;50.506;30.832;2023-09-19T01:00:57;100196.97;;;15.72;69.59
42003;BME280;27693;50.506;30.832;2023-09-19T01:01:59;100197.08;;;15.70;68.94
42003;BME280;27693;50.506;30.832;2023-09-19T01:03:03;100195.38;;;15.69;68.78
42003;BME280;27693;50.506;30.832;2023-09-19T01:04:06;100198.94;;;15.68;69.04
42003;BME280;27693;50.506;30.832;2023-09-19T01:05:10;100195.55;;;15.66;69.09
42003;BME280;27693;50.506;30.832;2023-09-19T01:06:13;100202.32;;;15.70;68.71
42003;BME280;27693;50.506;30.832;2023-09-19T01:07:17;100196.21;;;15.70;68.70
42003;BME280;27693;50.506;30.832;2023-09-19T01:08:20;100199.86;;;15.67;69.23
42003;BME280;27693;50.506;30.832;2023-09-19T01:09:23;100199.86;;;15.67;69.15
42003;BME280;27693;50.506;30.832;2023-09-19T01:10:26;100200.80;;;15.66;68.62
42003;BME280;27693;50.506;30.832;2023-09-19T01:11:41;100198.94;;;15.68;69.04
42003;BME280;27693;50.506;30.832;2023-09-19T01:17:15;100192.36;;;15.61;69.15
42003;BME280;27693;50.506;30.832;2023-09-19T01:20:19;100192.36;;;15.61;68.97
42003;BME280;27693;50.506;30.832;2023-09-19T01:21:26;100196.02;;;15.58;68.93
42003;BME280;27693;50.506;30.832;2023-09-19T01:24:34;100187.19;;;15.45;69.86
42003;BME280;27693;50.506;30.832;2023-09-19T01:26:07;100195.15;;;15.43;69.65
42003;BME280;27693;50.506;30.832;2023-09-19T01:30:32;100193.63;;;15.39;69.99
42003;BME280;27693;50.506;30.832;2023-09-19T01:31:37;100183.80;;;15.43;71.43
42003;BME280;27693;50.506;30.832;2023-09-19T01:32:42;100194.39;;;15.41;70.76
42003;BME280;27693;50.506;30.832;2023-09-19T01:34:02;100186.52;;;15.41;70.81
42003;BME280;27693;50.506;30.832;2023-09-19T01:35:10;100186.52;;;15.41;70.81
42003;BME280;27693;50.506;30.832;2023-09-19T01:36:15;100190.84;;;15.42;70.81
42003;BME280;27693;50.506;30.832;2023-09-19T01:37:18;100191.93;;;15.38;70.67
42003;BME280;27693;50.506;30.832;2023-09-19T01:38:26;100191.20;;;15.36;71.08
42003;BME280;27693;50.506;30.832;2023-09-19T01:39:30;100192.43;;;15.45;70.63
42003;BME280;27693;50.506;30.832;2023-09-19T01:40:34;100193.27;;;15.45;70.81
42003;BME280;27693;50.506;30.832;2023-09-19T01:43:05;100192.90;;;15.52;70.50
42003;BME280;27693;50.506;30.832;2023-09-19T01:44:05;100191.60;;;15.59;70.86
42003;BME280;27693;50.506;30.832;2023-09-19T01:46:38;100195.75;;;15.63;69.50
42003;BME280;27693;50.506;30.832;2023-09-19T01:50:19;100195.92;;;15.60;69.84
42003;BME280;27693;50.506;30.832;2023-09-19T01:51:46;100193.66;;;15.54;69.34
42003;BME280;27693;50.506;30.832;2023-09-19T01:53:14;100191.23;;;15.51;69.30
42003;BME280;27693;50.506;30.832;2023-09-19T01:54:15;100194.95;;;15.46;69.26
42003;BME280;27693;50.506;30.832;2023-09-19T01:55:19;100189.71;;;15.46;71.27
42003;BME280;27693;50.506;30.832;2023-09-19T01:56:25;100195.62;;;15.50;70.04
42003;BME280;27693;50.506;30.832;2023-09-19T01:57:29;100188.78;;;15.47;70.49
42003;BME280;27693;50.506;30.832;2023-09-19T01:58:46;100186.36;;;15.44;70.24
42003;BME280;27693;50.506;30.832;2023-09-19T01:59:52;100193.45;;;15.42;73.17
42003;BME280;27693;50.506;30.832;2023-09-19T02:00:58;100191.60;;;15.44;71.04
42003;BME280;27693;50.506;30.832;2023-09-19T02:02:03;100189.91;;;15.43;70.41
42003;BME280;27693;50.506;30.832;2023-09-19T02:03:10;100182.97;;;15.42;70.12
42003;BME280;27693;50.506;30.832;2023-09-19T02:04:13;100189.14;;;15.41;70.67
42003;BME280;27693;50.506;30.832;2023-09-19T02:05:23;100186.06;;;15.49;70.86
42003;BME280;27693;50.506;30.832;2023-09-19T02:06:39;100182.08;;;15.58;70.67
42003;BME280;27693;50.506;30.832;2023-09-19T02:07:40;100179.42;;;15.43;70.25
42003;BME280;27693;50.506;30.832;2023-09-19T02:08:42;100171.19;;;15.49;70.19
42003;BME280;27693;50.506;30.832;2023-09-19T02:09:46;100171.19;;;15.49;70.19
42003;BME280;27693;50.506;30.832;2023-09-19T02:10:50;100175.97;;;15.57;69.63
42003;BME280;27693;50.506;30.832;2023-09-19T02:11:52;100170.06;;;15.54;69.42
42003;BME280;27693;50.506;30.832;2023-09-19T02:12:55;100176.16;;;15.54;69.24
42003;BME280;27693;50.506;30.832;2023-09-19T02:13:58;100170.72;;;15.57;69.30
42003;BME280;27693;50.506;30.832;2023-09-19T02:15:01;100173.34;;;15.57;69.30
42003;BME280;27693;50.506;30.832;2023-09-19T02:16:05;100167.70;;;15.49;70.86
42003;BME280;27693;50.506;30.832;2023-09-19T02:17:09;100166.31;;;15.43;69.83
42003;BME280;27693;50.506;30.832;2023-09-19T02:18:14;100168.73;;;15.46;70.30
42003;BME280;27693;50.506;30.832;2023-09-19T02:19:25;100168.96;;;15.58;69.51
42003;BME280;27693;50.506;30.832;2023-09-19T02:20:28;100173.25;;;15.44;70.33
42003;BME280;27693;50.506;30.832;2023-09-19T02:21:31;100166.74;;;15.36;69.76
42003;BME280;27693;50.506;30.832;2023-09-19T02:22:35;100165.25;;;15.31;70.31
42003;BME280;27693;50.506;30.832;2023-09-19T02:23:38;100167.97;;;15.30;70.58
42003;BME280;27693;50.506;30.832;2023-09-19T02:24:41;100173.21;;;15.30;70.24
42003;BME280;27693;50.506;30.832;2023-09-19T02:25:56;100161.60;;;15.34;70.19
42003;BME280;27693;50.506;30.832;2023-09-19T02:26:56;100167.61;;;15.36;69.84
42003;BME280;27693;50.506;30.832;2023-09-19T02:27:59;100164.05;;;15.37;71.63
42003;BME280;27693;50.506;30.832;2023-09-19T02:29:03;100167.77;;;15.33;70.12
42003;BME280;27693;50.506;30.832;2023-09-19T02:30:07;100162.36;;;15.36;71.85
42003;BME280;27693;50.506;30.832;2023-09-19T02:31:10;100163.76;;;15.42;71.55
42003;BME280;27693;50.506;30.832;2023-09-19T02:32:12;100162.83;;;15.43;72.47
42003;BME280;27693;50.506;30.832;2023-09-19T02:33:15;100163.13;;;15.53;73.17
42003;BME280;27693;50.506;30.832;2023-09-19T02:34:19;100161.63;;;15.48;71.88
42003;BME280;27693;50.506;30.832;2023-09-19T02:35:22;100156.48;;;15.47;70.72
42003;BME280;27693;50.506;30.832;2023-09-19T02:36:25;100163.86;;;15.40;70.57
42003;BME280;27693;50.506;30.832;2023-09-19T02:37:27;100159.57;;;15.54;72.42
42003;BME280;27693;50.506;30.832;2023-09-19T02:38:29;100157.34;;;15.62;71.29
42003;BME280;27693;50.506;30.832;2023-09-19T02:39:32;100162.59;;;15.62;69.86
42003;BME280;27693;50.506;30.832;2023-09-19T02:40:36;100156.52;;;15.61;69.95
42003;BME280;27693;50.506;30.832;2023-09-19T02:41:42;100157.52;;;15.59;69.32
42003;BME280;27693;50.506;30.832;2023-09-19T02:42:52;100158.38;;;15.59;69.13
42003;BME280;27693;50.506;30.832;2023-09-19T02:43:53;100158.54;;;15.56;69.09
42003;BME280;27693;50.506;30.832;2023-09-19T02:44:56;100156.19;;;15.52;69.02
42003;BME280;27693;50.506;30.832;2023-09-19T02:45:59;100161.27;;;15.55;69.85
42003;BME280;27693;50.506;30.832;2023-09-19T02:47:02;100150.38;;;15.46;69.34
42003;BME280;27693;50.506;30.832;2023-09-19T02:48:06;100151.51;;;15.42;69.41
42003;BME280;27693;50.506;30.832;2023-09-19T02:49:09;100156.66;;;15.44;69.58
42003;BME280;27693;50.506;30.832;2023-09-19T02:50:14;100151.31;;;15.45;69.79
42003;BME280;27693;50.506;30.832;2023-09-19T02:51:18;100147.20;;;15.41;69.52
42003;BME280;27693;50.506;30.832;2023-09-19T02:52:20;100151.68;;;15.39;69.70
42003;BME280;27693;50.506;30.832;2023-09-19T02:53:22;100148.33;;;15.37;69.50
42003;BME280;27693;50.506;30.832;2023-09-19T02:54:26;100143.25;;;15.34;69.83
42003;BME280;27693;50.506;30.832;2023-09-19T02:55:29;100143.25;;;15.34;70.00
42003;BME280;27693;50.506;30.832;2023-09-19T02:56:31;100147.92;;;15.29;69.97
42003;BME280;27693;50.506;30.832;2023-09-19T02:57:34;100148.86;;;15.28;69.87
42003;BME280;27693;50.506;30.832;2023-09-19T02:58:37;100144.73;;;15.24;70.44
42003;BME280;27693;50.506;30.832;2023-09-19T02:59:41;100143.05;;;15.23;69.99
42003;BME280;27693;50.506;30.832;2023-09-19T03:00:47;100145.00;;;15.19;69.94
42003;BME280;27693;50.506;30.832;2023-09-19T03:01:49;100134.52;;;15.19;69.85
42003;BME280;27693;50.506;30.832;2023-09-19T03:02:55;100137.56;;;15.11;70.02
42003;BME280;27693;50.506;30.832;2023-09-19T03:04:00;100143.00;;;15.08;70.30
42003;BME280;27693;50.506;30.832;2023-09-19T03:05:02;100137.86;;;15.07;70.19
42003;BME280;27693;50.506;30.832;2023-09-19T03:06:06;100139.97;;;15.00;70.27
42003;BME280;27693;50.506;30.832;2023-09-19T03:07:10;100134.73;;;15.00;70.39
42003;BME280;27693;50.506;30.832;2023-09-19T03:08:14;100139.81;;;15.03;70.27
42003;BME280;27693;50.506;30.832;2023-09-19T03:09:22;100132.78;;;15.04;70.35
42003;BME280;27693;50.506;30.832;2023-09-19T03:10:25;100140.91;;;14.99;70.68
42003;BME280;27693;50.506;30.832;2023-09-19T03:11:28;100139.97;;;15.00;70.58
42003;BME280;27693;50.506;30.832;2023-09-19T03:12:33;100130.06;;;15.05;70.43
42003;BME280;27693;50.506;30.832;2023-09-19T03:13:37;100137.77;;;15.08;70.49
42003;BME280;27693;50.506;30.832;2023-09-19T03:14:41;100131.86;;;15.05;70.21
42003;BME280;27693;50.506;30.832;2023-09-19T03:15:44;100132.69;;;15.05;70.99
42003;BME280;27693;50.506;30.832;2023-09-19T03:16:50;100139.45;;;15.09;71.62
42003;BME280;27693;50.506;30.832;2023-09-19T03:17:55;100132.52;;;15.08;70.88
42003;BME280;27693;50.506;30.832;2023-09-19T03:18:59;100138.23;;;15.15;70.64
42003;BME280;27693;50.506;30.832;2023-09-19T03:20:03;100131.80;;;15.21;70.43
42003;BME280;27693;50.506;30.832;2023-09-19T03:21:11;100135.55;;;15.16;70.80
42003;BME280;27693;50.506;30.832;2023-09-19T03:22:16;100120.29;;;15.23;71.50
42003;BME280;27693;50.506;30.832;2023-09-19T03:23:19;100132.16;;;15.14;69.75
42003;BME280;27693;50.506;30.832;2023-09-19T03:24:22;100133.25;;;15.10;69.77
42003;BME280;27693;50.506;30.832;2023-09-19T03:25:25;100127.38;;;15.07;69.83
42003;BME280;27693;50.506;30.832;2023-09-19T03:26:28;100136.59;;;14.98;70.18
42003;BME280;27693;50.506;30.832;2023-09-19T03:27:32;100131.35;;;14.98;70.57
42003;BME280;27693;50.506;30.832;2023-09-19T03:28:35;100136.78;;;14.95;70.57
42003;BME280;27693;50.506;30.832;2023-09-19T03:29:38;100133.40;;;14.93;70.96
42003;BME280;27693;50.506;30.832;2023-09-19T03:30:41;100133.40;;;14.93;71.46
42003;BME280;27693;50.506;30.832;2023-09-19T03:31:44;100132.12;;;15.00;71.43
42003;BME280;27693;50.506;30.832;2023-09-19T03:32:48;100125.75;;;15.04;71.28
42003;BME280;27693;50.506;30.832;2023-09-19T03:33:52;100125.37;;;14.96;70.73
42003;BME280;27693;50.506;30.832;2023-09-19T03:34:56;100130.02;;;14.91;70.82
42003;BME280;27693;50.506;30.832;2023-09-19T03:35:59;100130.02;;;14.91;70.82
42003;BME280;27693;50.506;30.832;2023-09-19T03:37:03;100124.61;;;14.94;70.39
42003;BME280;27693;50.506;30.832;2023-09-19T03:38:06;100131.03;;;14.88;71.38
42003;BME280;27693;50.506;30.832;2023-09-19T03:39:09;100118.04;;;14.87;71.01
42003;BME280;27693;50.506;30.832;2023-09-19T03:40:13;100118.04;;;14.87;71.01
42003;BME280;27693;50.506;30.832;2023-09-19T03:41:16;100134.23;;;14.93;70.88
42003;BME280;27693;50.506;30.832;2023-09-19T03:42:19;100130.02;;;14.91;71.11
42003;BME280;27693;50.506;30.832;2023-09-19T03:43:24;100131.55;;;14.95;71.26
42003;BME280;27693;50.506;30.832;2023-09-19T03:44:27;100132.37;;;14.95;70.80
42003;BME280;27693;50.506;30.832;2023-09-19T03:45:30;100134.90;;;14.97;71.43
42003;BME280;27693;50.506;30.832;2023-09-19T03:46:32;100136.52;;;14.99;70.74
42003;BME280;27693;50.506;30.832;2023-09-19T03:47:35;100130.52;;;14.97;70.34
42003;BME280;27693;50.506;30.832;2023-09-19T03:48:38;100127.13;;;14.95;71.83
42003;BME280;27693;50.506;30.832;2023-09-19T03:49:42;100135.09;;;14.94;71.16
42003;BME280;27693;50.506;30.832;2023-09-19T03:50:45;100135.09;;;14.94;70.50
42003;BME280;27693;50.506;30.832;2023-09-19T03:51:47;100128.33;;;14.90;70.44
42003;BME280;27693;50.506;30.832;2023-09-19T03:52:50;100134.23;;;14.93;70.40
42003;BME280;27693;50.506;30.832;2023-09-19T03:53:52;100129.85;;;14.94;70.50
42003;BME280;27693;50.506;30.832;2023-09-19T03:54:54;100118.70;;;14.90;71.29
42003;BME280;27693;50.506;30.832;2023-09-19T03:56:00;100129.85;;;14.94;70.69
42003;BME280;27693;50.506;30.832;2023-09-19T03:57:04;100119.38;;;14.94;70.39
42003;BME280;27693;50.506;30.832;2023-09-19T03:58:07;100126.30;;;14.95;70.15
42003;BME280;27693;50.506;30.832;2023-09-19T03:59:10;100123.08;;;14.90;70.37
42003;BME280;27693;50.506;30.832;2023-09-19T04:00:14;100122.45;;;14.86;70.37
42003;BME280;27693;50.506;30.832;2023-09-19T04:01:19;100122.09;;;14.92;70.94
42003;BME280;27693;50.506;30.832;2023-09-19T04:02:23;100117.68;;;14.93;70.37
42003;BME280;27693;50.506;30.832;2023-09-19T04:03:26;100121.23;;;14.92;70.13
42003;BME280;27693;50.506;30.832;2023-09-19T04:04:31;100117.52;;;14.96;70.13
42003;BME280;27693;50.506;30.832;2023-09-19T04:05:35;100120.88;;;14.98;70.12
42003;BME280;27693;50.506;30.832;2023-09-19T04:06:37;100119.84;;;15.00;70.10
42003;BME280;27693;50.506;30.832;2023-09-19T04:07:40;100118.85;;;15.03;70.15
42003;BME280;27693;50.506;30.832;2023-09-19T04:08:43;100121.02;;;15.11;70.41
42003;BME280;27693;50.506;30.832;2023-09-19T04:09:47;100125.75;;;15.04;69.88
42003;BME280;27693;50.506;30.832;2023-09-19T04:10:51;100118.75;;;15.05;69.92
42003;BME280;27693;50.506;30.832;2023-09-19T04:11:54;100121.84;;;15.11;69.63
42003;BME280;27693;50.506;30.832;2023-09-19T04:12:58;100120.09;;;15.12;69.31
42003;BME280;27693;50.506;30.832;2023-09-19T04:14:03;100125.39;;;15.10;69.36
42003;BME280;27693;50.506;30.832;2023-09-19T04:15:07;100122.97;;;15.07;69.58
42003;BME280;27693;50.506;30.832;2023-09-19T04:16:11;100125.37;;;14.96;69.94
42003;BME280;27693;50.506;30.832;2023-09-19T04:17:14;100115.98;;;14.92;70.19
42003;BME280;27693;50.506;30.832;2023-09-19T04:18:16;100126.66;;;14.89;70.19
42003;BME280;27693;50.506;30.832;2023-09-19T04:19:20;100120.46;;;14.90;70.30
42003;BME280;27693;50.506;30.832;2023-09-19T04:20:25;100115.32;;;14.88;70.53
42003;BME280;27693;50.506;30.832;2023-09-19T04:21:27;100126.83;;;14.85;70.57
42003;BME280;27693;50.506;30.832;2023-09-19T04:22:32;100125.06;;;14.86;70.60
42003;BME280;27693;50.506;30.832;2023-09-19T04:23:35;100121.58;;;14.85;70.49
42003;BME280;27693;50.506;30.832;2023-09-19T04:24:38;100123.62;;;14.80;71.15
42003;BME280;27693;50.506;30.832;2023-09-19T04:25:41;100119.73;;;14.88;70.89
42003;BME280;27693;50.506;30.832;2023-09-19T04:26:45;100115.77;;;14.80;70.91
42003;BME280;27693;50.506;30.832;2023-09-19T04:27:49;100115.58;;;14.83;72.00
42003;BME280;27693;50.506;30.832;2023-09-19T04:28:51;100117.84;;;14.90;72.15
42003;BME280;27693;50.506;30.832;2023-09-19T04:29:53;100114.80;;;14.97;73.80
42003;BME280;27693;50.506;30.832;2023-09-19T04:30:58;100118.75;;;15.05;72.72
42003;BME280;27693;50.506;30.832;2023-09-19T04:32:01;100116.96;;;15.05;70.87
42003;BME280;27693;50.506;30.832;2023-09-19T04:33:05;100116.80;;;15.08;70.46
42003;BME280;27693;50.506;30.832;2023-09-19T04:34:10;100113.61;;;15.03;70.13
42003;BME280;27693;50.506;30.832;2023-09-19T04:35:12;100112.59;;;15.06;70.43
42003;BME280;27693;50.506;30.832;2023-09-19T04:36:16;100115.11;;;15.07;70.96
42003;BME280;27693;50.506;30.832;2023-09-19T04:37:20;100116.80;;;15.08;70.05
42003;BME280;27693;50.506;30.832;2023-09-19T04:38:24;100113.81;;;15.14;70.19
42003;BME280;27693;50.506;30.832;2023-09-19T04:39:27;100121.31;;;15.21;70.03
42003;BME280;27693;50.506;30.832;2023-09-19T04:40:30;100114.22;;;15.23;73.01
42003;BME280;27693;50.506;30.832;2023-09-19T04:41:33;100115.91;;;15.24;71.56
42003;BME280;27693;50.506;30.832;2023-09-19T04:42:36;100117.77;;;15.22;70.98
42003;BME280;27693;50.506;30.832;2023-09-19T04:43:38;100122.64;;;15.28;70.54
42003;BME280;27693;50.506;30.832;2023-09-19T04:44:41;100122.45;;;15.31;69.92
42003;BME280;27693;50.506;30.832;2023-09-19T04:45:44;100116.47;;;15.29;69.12
42003;BME280;27693;50.506;30.832;2023-09-19T04:46:47;100122.81;;;15.25;69.32
42003;BME280;27693;50.506;30.832;2023-09-19T04:47:50;100117.00;;;15.20;69.60
42003;BME280;27693;50.506;30.832;2023-09-19T04:48:52;100115.41;;;15.17;70.80
42003;BME280;27693;50.506;30.832;2023-09-19T04:49:55;100121.31;;;15.21;70.25
42003;BME280;27693;50.506;30.832;2023-09-19T04:50:59;100117.94;;;15.18;69.45
42003;BME280;27693;50.506;30.832;2023-09-19T04:52:03;100114.91;;;15.10;69.71
42003;BME280;27693;50.506;30.832;2023-09-19T04:53:05;100112.29;;;15.10;69.95
42003;BME280;27693;50.506;30.832;2023-09-19T04:54:15;100116.53;;;15.13;69.56
42003;BME280;27693;50.506;30.832;2023-09-19T04:55:20;100109.50;;;15.13;69.33
42003;BME280;27693;50.506;30.832;2023-09-19T04:56:23;100113.25;;;15.09;69.84
42003;BME280;27693;50.506;30.832;2023-09-19T04:57:26;100113.25;;;15.09;69.53
42003;BME280;27693;50.506;30.832;2023-09-19T04:58:30;100114.18;;;15.08;69.72
42003;BME280;27693;50.506;30.832;2023-09-19T04:59:32;100102.94;;;15.06;69.69
42003;BME280;27693;50.506;30.832;2023-09-19T05:00:34;100100.67;;;15.00;70.27
42003;BME280;27693;50.506;30.832;2023-09-19T05:01:37;100111.05;;;15.01;69.79
42003;BME280;27693;50.506;30.832;2023-09-19T05:02:41;100106.94;;;14.97;70.35
42003;BME280;27693;50.506;30.832;2023-09-19T05:03:44;100099.25;;;14.94;70.28
42003;BME280;27693;50.506;30.832;2023-09-19T05:04:47;100102.89;;;14.92;70.61
42003;BME280;27693;50.506;30.832;2023-09-19T05:05:50;100103.82;;;14.91;71.44
42003;BME280;27693;50.506;30.832;2023-09-19T05:06:52;100110.39;;;14.98;71.10
42003;BME280;27693;50.506;30.832;2023-09-19T05:07:55;100105.34;;;14.95;70.81
42003;BME280;27693;50.506;30.832;2023-09-19T05:08:59;100101.60;;;14.99;70.49
42003;BME280;27693;50.506;30.832;2023-09-19T05:10:03;100104.06;;;15.02;70.91
42003;BME280;27693;50.506;30.832;2023-09-19T05:11:08;100109.37;;;15.00;70.43
42003;BME280;27693;50.506;30.832;2023-09-19T05:12:11;100107.34;;;15.06;70.46
42003;BME280;27693;50.506;30.832;2023-09-19T05:13:13;100094.14;;;15.07;71.14
42003;BME280;27693;50.506;30.832;2023-09-19T05:14:16;100100.58;;;15.01;71.52
42003;BME280;27693;50.506;30.832;2023-09-19T05:15:19;100102.00;;;15.07;71.47
42003;BME280;27693;50.506;30.832;2023-09-19T05:16:21;100097.90;;;15.17;71.02
42003;BME280;27693;50.506;30.832;2023-09-19T05:17:23;100097.46;;;15.25;70.71
42003;BME280;27693;50.506;30.832;2023-09-19T05:18:27;100100.38;;;15.35;70.30
42003;BME280;27693;50.506;30.832;2023-09-19T05:19:29;100104.48;;;15.39;70.07
42003;BME280;27693;50.506;30.832;2023-09-19T05:20:32;100107.38;;;15.34;70.32
42003;BME280;27693;50.506;30.832;2023-09-19T05:21:35;100100.48;;;15.33;70.90
42003;BME280;27693;50.506;30.832;2023-09-19T05:22:38;100105.62;;;15.35;70.17
42003;BME280;27693;50.506;30.832;2023-09-19T05:23:42;100100.94;;;15.40;70.10
42003;BME280;27693;50.506;30.832;2023-09-19T05:24:46;100102.63;;;15.41;70.95
42003;BME280;27693;50.506;30.832;2023-09-19T05:25:51;100100.94;;;15.40;71.01
42003;BME280;27693;50.506;30.832;2023-09-19T05:26:54;100101.33;;;15.48;70.49
42003;BME280;27693;50.506;30.832;2023-09-19T05:27:58;100099.08;;;15.42;70.07
42003;BME280;27693;50.506;30.832;2023-09-19T05:29:01;100099.08;;;15.42;69.82
42003;BME280;27693;50.506;30.832;2023-09-19T05:30:06;100106.47;;;15.50;69.91
42003;BME280;27693;50.506;30.832;2023-09-19T05:31:09;100104.06;;;15.61;69.97
42003;BME280;27693;50.506;30.832;2023-09-19T05:32:12;100105.06;;;15.59;69.45
42003;BME280;27693;50.506;30.832;2023-09-19T05:33:14;100106.75;;;15.60;69.68
42003;BME280;27693;50.506;30.832;2023-09-19T05:34:17;100106.95;;;15.57;70.91
42003;BME280;27693;50.506;30.832;2023-09-19T05:35:19;100104.12;;;15.45;70.43
42003;BME280;27693;50.506;30.832;2023-09-19T05:36:23;100106.01;;;15.43;70.97
42003;BME280;27693;50.506;30.832;2023-09-19T05:37:27;100112.28;;;15.41;71.42
42003;BME280;27693;50.506;30.832;2023-09-19T05:38:29;100107.04;;;15.41;70.84
42003;BME280;27693;50.506;30.832;2023-09-19T05:39:33;100105.25;;;15.41;70.78
42003;BME280;27693;50.506;30.832;2023-09-19T05:40:36;100105.15;;;15.43;71.08
42003;BME280;27693;50.506;30.832;2023-09-19T05:41:40;100104.78;;;15.49;71.41
42003;BME280;27693;50.506;30.832;2023-09-19T05:42:44;100104.98;;;15.46;71.13
42003;BME280;27693;50.506;30.832;2023-09-19T05:43:49;100106.47;;;15.50;71.32
42003;BME280;27693;50.506;30.832;2023-09-19T05:44:53;100106.67;;;15.47;71.59
42003;BME280;27693;50.506;30.832;2023-09-19T05:45:55;100107.12;;;15.54;71.07
42003;BME280;27693;50.506;30.832;2023-09-19T05:46:58;100103.20;;;15.61;71.24
42003;BME280;27693;50.506;30.832;2023-09-19T05:48:09;100094.02;;;15.68;70.79